Fuente-Alamo de Murcia, Spain
Current Conditions -  °F | °C
As of 10:00 PM on Friday 28 Nov 2014 (Local Time) from LELC Reporting Station
Scattered Clouds Scattered Clouds  
Wind Chill: 64°   Ceiling: Unl
Heat Index: 64°   Visibility: 6mi
Dew Point: 59°   Wind: 13mph
Humidity: 83%   Direction: 150°SSE
Pressure: 29.26"   Gusts: NA
Location:  37.7°N, 1.1°W
Report Text: LELC 282100Z 15011KT 110V190 9999 SCT025 18/15 Q0991 NOSIG
Loading
Personal Weather Stations






























Interactive Weather Map New forecast layout! Learn more

10-Day Weather Forecast

Advertisements
Track Severe Weather on mobile